sensor_id;sensor_type;location;lat;lon;timestamp;P1;durP1;ratioP1;P2;durP2;ratioP2
17259;SDS011;8746;49.230;9.220;2022-07-04T00:00:00;2.83;;;1.60;;
17259;SDS011;8746;49.230;9.220;2022-07-04T00:02:26;2.00;;;1.50;;
17259;SDS011;8746;49.230;9.220;2022-07-04T00:04:51;1.70;;;1.60;;
17259;SDS011;8746;49.230;9.220;2022-07-04T00:07:16;2.87;;;1.53;;
17259;SDS011;8746;49.230;9.220;2022-07-04T00:09:42;1.50;;;1.40;;
17259;SDS011;8746;49.230;9.220;2022-07-04T00:12:07;2.80;;;1.37;;
17259;SDS011;8746;49.230;9.220;2022-07-04T00:14:34;1.60;;;1.50;;
17259;SDS011;8746;49.230;9.220;2022-07-04T00:16:59;1.50;;;1.40;;
17259;SDS011;8746;49.230;9.220;2022-07-04T00:19:25;3.57;;;1.50;;
17259;SDS011;8746;49.230;9.220;2022-07-04T00:21:50;1.77;;;1.50;;
17259;SDS011;8746;49.230;9.220;2022-07-04T00:24:15;1.80;;;1.70;;
17259;SDS011;8746;49.230;9.220;2022-07-04T00:26:41;1.37;;;1.33;;
17259;SDS011;8746;49.230;9.220;2022-07-04T00:29:06;1.73;;;1.43;;
17259;SDS011;8746;49.230;9.220;2022-07-04T00:31:32;3.37;;;2.00;;
17259;SDS011;8746;49.230;9.220;2022-07-04T00:33:57;3.73;;;1.60;;
17259;SDS011;8746;49.230;9.220;2022-07-04T00:36:23;3.03;;;1.50;;
17259;SDS011;8746;49.230;9.220;2022-07-04T00:38:48;2.50;;;1.90;;
17259;SDS011;8746;49.230;9.220;2022-07-04T00:41:13;2.57;;;1.40;;
17259;SDS011;8746;49.230;9.220;2022-07-04T00:43:39;1.93;;;1.60;;
17259;SDS011;8746;49.230;9.220;2022-07-04T00:46:04;5.37;;;1.50;;
17259;SDS011;8746;49.230;9.220;2022-07-04T00:48:31;1.77;;;1.63;;
17259;SDS011;8746;49.230;9.220;2022-07-04T00:50:56;4.77;;;1.70;;
17259;SDS011;8746;49.230;9.220;2022-07-04T00:53:22;2.07;;;1.50;;
17259;SDS011;8746;49.230;9.220;2022-07-04T00:55:49;3.17;;;1.80;;
17259;SDS011;8746;49.230;9.220;2022-07-04T00:58:21;3.20;;;1.70;;
17259;SDS011;8746;49.230;9.220;2022-07-04T01:00:48;2.20;;;1.50;;
17259;SDS011;8746;49.230;9.220;2022-07-04T01:03:15;1.77;;;1.67;;
17259;SDS011;8746;49.230;9.220;2022-07-04T01:05:40;2.73;;;1.70;;
17259;SDS011;8746;49.230;9.220;2022-07-04T01:08:07;1.70;;;1.60;;
17259;SDS011;8746;49.230;9.220;2022-07-04T01:10:33;3.43;;;1.60;;
17259;SDS011;8746;49.230;9.220;2022-07-04T01:12:58;3.87;;;1.87;;
17259;SDS011;8746;49.230;9.220;2022-07-04T01:15:24;1.80;;;1.50;;
17259;SDS011;8746;49.230;9.220;2022-07-04T01:17:50;2.43;;;1.70;;
17259;SDS011;8746;49.230;9.220;2022-07-04T01:20:15;2.60;;;1.63;;
17259;SDS011;8746;49.230;9.220;2022-07-04T01:22:41;2.30;;;1.70;;
17259;SDS011;8746;49.230;9.220;2022-07-04T01:25:08;1.70;;;1.60;;
17259;SDS011;8746;49.230;9.220;2022-07-04T01:27:34;1.80;;;1.47;;
17259;SDS011;8746;49.230;9.220;2022-07-04T01:30:00;2.93;;;1.70;;
17259;SDS011;8746;49.230;9.220;2022-07-04T01:32:25;3.63;;;1.90;;
17259;SDS011;8746;49.230;9.220;2022-07-04T01:34:51;1.93;;;1.83;;
17259;SDS011;8746;49.230;9.220;2022-07-04T01:37:16;1.80;;;1.70;;
17259;SDS011;8746;49.230;9.220;2022-07-04T01:39:42;4.03;;;1.80;;
17259;SDS011;8746;49.230;9.220;2022-07-04T01:42:08;1.97;;;1.77;;
17259;SDS011;8746;49.230;9.220;2022-07-04T01:44:34;1.77;;;1.67;;
17259;SDS011;8746;49.230;9.220;2022-07-04T01:46:59;2.40;;;1.77;;
17259;SDS011;8746;49.230;9.220;2022-07-04T01:49:25;3.00;;;1.70;;
17259;SDS011;8746;49.230;9.220;2022-07-04T01:51:50;4.80;;;1.90;;
17259;SDS011;8746;49.230;9.220;2022-07-04T01:54:16;2.80;;;2.00;;
17259;SDS011;8746;49.230;9.220;2022-07-04T01:56:42;3.37;;;1.90;;
17259;SDS011;8746;49.230;9.220;2022-07-04T01:59:08;1.97;;;1.80;;
17259;SDS011;8746;49.230;9.220;2022-07-04T02:01:34;3.40;;;1.70;;
17259;SDS011;8746;49.230;9.220;2022-07-04T02:04:00;1.90;;;1.80;;
17259;SDS011;8746;49.230;9.220;2022-07-04T02:06:28;2.03;;;1.70;;
17259;SDS011;8746;49.230;9.220;2022-07-04T02:08:55;4.33;;;1.90;;
17259;SDS011;8746;49.230;9.220;2022-07-04T02:11:39;1.70;;;1.60;;
17259;SDS011;8746;49.230;9.220;2022-07-04T02:14:24;2.10;;;1.90;;
17259;SDS011;8746;49.230;9.220;2022-07-04T02:16:50;4.63;;;1.87;;
17259;SDS011;8746;49.230;9.220;2022-07-04T02:19:16;3.93;;;1.97;;
17259;SDS011;8746;49.230;9.220;2022-07-04T02:21:41;3.63;;;2.23;;
17259;SDS011;8746;49.230;9.220;2022-07-04T02:24:07;4.07;;;1.97;;
17259;SDS011;8746;49.230;9.220;2022-07-04T02:26:32;5.60;;;2.23;;
17259;SDS011;8746;49.230;9.220;2022-07-04T02:28:58;4.30;;;1.97;;
17259;SDS011;8746;49.230;9.220;2022-07-04T02:31:23;1.90;;;1.80;;
17259;SDS011;8746;49.230;9.220;2022-07-04T02:33:48;2.13;;;1.90;;
17259;SDS011;8746;49.230;9.220;2022-07-04T02:36:14;5.40;;;1.87;;
17259;SDS011;8746;49.230;9.220;2022-07-04T02:38:39;8.30;;;1.90;;
17259;SDS011;8746;49.230;9.220;2022-07-04T02:41:05;1.93;;;1.83;;
17259;SDS011;8746;49.230;9.220;2022-07-04T02:43:30;2.10;;;1.90;;
17259;SDS011;8746;49.230;9.220;2022-07-04T02:45:56;3.07;;;2.00;;
17259;SDS011;8746;49.230;9.220;2022-07-04T02:48:21;3.03;;;2.00;;
17259;SDS011;8746;49.230;9.220;2022-07-04T02:50:46;4.00;;;2.00;;
17259;SDS011;8746;49.230;9.220;2022-07-04T02:53:12;2.13;;;1.90;;
17259;SDS011;8746;49.230;9.220;2022-07-04T02:55:37;3.20;;;2.10;;
17259;SDS011;8746;49.230;9.220;2022-07-04T02:58:02;2.30;;;2.03;;
17259;SDS011;8746;49.230;9.220;2022-07-04T03:00:28;2.77;;;2.23;;
17259;SDS011;8746;49.230;9.220;2022-07-04T03:02:53;2.20;;;2.10;;
17259;SDS011;8746;49.230;9.220;2022-07-04T03:05:19;3.37;;;2.03;;
17259;SDS011;8746;49.230;9.220;2022-07-04T03:07:45;3.53;;;2.30;;
17259;SDS011;8746;49.230;9.220;2022-07-04T03:10:10;4.83;;;2.40;;
17259;SDS011;8746;49.230;9.220;2022-07-04T03:12:36;4.20;;;2.27;;
17259;SDS011;8746;49.230;9.220;2022-07-04T03:15:01;3.53;;;2.30;;
17259;SDS011;8746;49.230;9.220;2022-07-04T03:17:27;3.50;;;2.10;;
17259;SDS011;8746;49.230;9.220;2022-07-04T03:19:54;5.03;;;2.53;;
17259;SDS011;8746;49.230;9.220;2022-07-04T03:22:19;3.20;;;2.20;;
17259;SDS011;8746;49.230;9.220;2022-07-04T03:24:44;6.17;;;2.30;;
17259;SDS011;8746;49.230;9.220;2022-07-04T03:27:10;5.53;;;2.80;;
17259;SDS011;8746;49.230;9.220;2022-07-04T03:29:35;4.70;;;2.57;;
17259;SDS011;8746;49.230;9.220;2022-07-04T03:32:00;2.57;;;2.37;;
17259;SDS011;8746;49.230;9.220;2022-07-04T03:34:26;3.10;;;2.10;;
17259;SDS011;8746;49.230;9.220;2022-07-04T03:36:51;5.33;;;2.47;;
17259;SDS011;8746;49.230;9.220;2022-07-04T03:39:17;4.40;;;2.17;;
17259;SDS011;8746;49.230;9.220;2022-07-04T03:41:42;4.57;;;2.60;;
17259;SDS011;8746;49.230;9.220;2022-07-04T03:44:08;3.50;;;2.07;;
17259;SDS011;8746;49.230;9.220;2022-07-04T03:46:33;2.70;;;2.20;;
17259;SDS011;8746;49.230;9.220;2022-07-04T03:48:58;3.60;;;2.17;;
17259;SDS011;8746;49.230;9.220;2022-07-04T03:51:24;3.83;;;2.40;;
17259;SDS011;8746;49.230;9.220;2022-07-04T03:53:50;3.17;;;2.60;;
17259;SDS011;8746;49.230;9.220;2022-07-04T03:56:15;2.73;;;2.40;;
17259;SDS011;8746;49.230;9.220;2022-07-04T03:58:41;2.13;;;2.00;;
17259;SDS011;8746;49.230;9.220;2022-07-04T04:01:07;4.30;;;2.40;;
17259;SDS011;8746;49.230;9.220;2022-07-04T04:03:36;3.97;;;2.23;;
17259;SDS011;8746;49.230;9.220;2022-07-04T04:06:20;3.13;;;2.50;;
17259;SDS011;8746;49.230;9.220;2022-07-04T04:08:46;3.93;;;2.43;;
17259;SDS011;8746;49.230;9.220;2022-07-04T04:11:12;3.17;;;2.43;;
17259;SDS011;8746;49.230;9.220;2022-07-04T04:13:38;3.53;;;2.50;;
17259;SDS011;8746;49.230;9.220;2022-07-04T04:16:03;4.03;;;2.73;;
17259;SDS011;8746;49.230;9.220;2022-07-04T04:18:28;3.50;;;2.60;;
17259;SDS011;8746;49.230;9.220;2022-07-04T04:20:54;6.53;;;2.60;;
17259;SDS011;8746;49.230;9.220;2022-07-04T04:23:19;4.83;;;2.70;;
17259;SDS011;8746;49.230;9.220;2022-07-04T04:25:45;2.97;;;2.40;;
17259;SDS011;8746;49.230;9.220;2022-07-04T04:28:11;6.53;;;2.80;;
17259;SDS011;8746;49.230;9.220;2022-07-04T04:30:36;3.97;;;2.63;;
17259;SDS011;8746;49.230;9.220;2022-07-04T04:33:01;3.73;;;2.40;;
17259;SDS011;8746;49.230;9.220;2022-07-04T04:35:27;6.63;;;2.40;;
17259;SDS011;8746;49.230;9.220;2022-07-04T04:37:52;3.70;;;2.37;;
17259;SDS011;8746;49.230;9.220;2022-07-04T04:40:18;4.53;;;2.43;;
17259;SDS011;8746;49.230;9.220;2022-07-04T04:42:43;2.30;;;2.10;;
17259;SDS011;8746;49.230;9.220;2022-07-04T04:45:09;5.40;;;2.40;;
17259;SDS011;8746;49.230;9.220;2022-07-04T04:47:35;2.63;;;2.40;;
17259;SDS011;8746;49.230;9.220;2022-07-04T04:50:00;4.10;;;2.60;;
17259;SDS011;8746;49.230;9.220;2022-07-04T04:52:26;4.87;;;2.60;;
17259;SDS011;8746;49.230;9.220;2022-07-04T04:54:52;5.53;;;2.53;;
17259;SDS011;8746;49.230;9.220;2022-07-04T04:57:17;2.63;;;2.40;;
17259;SDS011;8746;49.230;9.220;2022-07-04T04:59:43;2.30;;;2.10;;
17259;SDS011;8746;49.230;9.220;2022-07-04T05:02:08;5.30;;;2.50;;
17259;SDS011;8746;49.230;9.220;2022-07-04T05:04:34;4.37;;;2.47;;
17259;SDS011;8746;49.230;9.220;2022-07-04T05:06:59;3.63;;;2.30;;
17259;SDS011;8746;49.230;9.220;2022-07-04T05:09:25;4.23;;;2.20;;
17259;SDS011;8746;49.230;9.220;2022-07-04T05:11:51;4.53;;;2.10;;
17259;SDS011;8746;49.230;9.220;2022-07-04T05:14:16;2.30;;;2.00;;
17259;SDS011;8746;49.230;9.220;2022-07-04T05:16:42;2.43;;;2.00;;
17259;SDS011;8746;49.230;9.220;2022-07-04T05:19:08;4.37;;;2.47;;
17259;SDS011;8746;49.230;9.220;2022-07-04T05:21:34;3.97;;;2.00;;
17259;SDS011;8746;49.230;9.220;2022-07-04T05:23:59;3.37;;;1.97;;
17259;SDS011;8746;49.230;9.220;2022-07-04T05:26:25;3.57;;;2.10;;
17259;SDS011;8746;49.230;9.220;2022-07-04T05:28:51;2.53;;;2.20;;
17259;SDS011;8746;49.230;9.220;2022-07-04T05:31:17;2.33;;;1.80;;
17259;SDS011;8746;49.230;9.220;2022-07-04T05:33:42;2.17;;;1.80;;
17259;SDS011;8746;49.230;9.220;2022-07-04T05:36:08;2.57;;;1.83;;
17259;SDS011;8746;49.230;9.220;2022-07-04T05:38:33;3.57;;;1.83;;
17259;SDS011;8746;49.230;9.220;2022-07-04T05:40:59;3.30;;;1.70;;
17259;SDS011;8746;49.230;9.220;2022-07-04T05:43:24;1.90;;;1.70;;
17259;SDS011;8746;49.230;9.220;2022-07-04T05:45:50;2.73;;;1.70;;
17259;SDS011;8746;49.230;9.220;2022-07-04T05:48:16;2.17;;;1.60;;
17259;SDS011;8746;49.230;9.220;2022-07-04T05:50:41;3.97;;;1.80;;
17259;SDS011;8746;49.230;9.220;2022-07-04T05:53:07;2.60;;;1.90;;
17259;SDS011;8746;49.230;9.220;2022-07-04T05:55:33;3.07;;;1.47;;
17259;SDS011;8746;49.230;9.220;2022-07-04T05:57:59;2.30;;;1.60;;
17259;SDS011;8746;49.230;9.220;2022-07-04T06:00:25;1.90;;;1.80;;
17259;SDS011;8746;49.230;9.220;2022-07-04T06:02:50;2.03;;;1.73;;
17259;SDS011;8746;49.230;9.220;2022-07-04T06:05:15;2.20;;;1.80;;
17259;SDS011;8746;49.230;9.220;2022-07-04T06:07:41;2.20;;;1.95;;
17259;SDS011;8746;49.230;9.220;2022-07-04T06:10:06;2.50;;;1.70;;
17259;SDS011;8746;49.230;9.220;2022-07-04T06:12:32;2.10;;;1.52;;
17259;SDS011;8746;49.230;9.220;2022-07-04T06:14:57;4.55;;;1.98;;
17259;SDS011;8746;49.230;9.220;2022-07-04T06:17:23;1.70;;;1.60;;
17259;SDS011;8746;49.230;9.220;2022-07-04T06:19:49;2.63;;;1.73;;
17259;SDS011;8746;49.230;9.220;2022-07-04T06:22:14;1.95;;;1.75;;
17259;SDS011;8746;49.230;9.220;2022-07-04T06:24:40;2.65;;;1.80;;
17259;SDS011;8746;49.230;9.220;2022-07-04T06:27:05;3.30;;;1.67;;
17259;SDS011;8746;49.230;9.220;2022-07-04T06:29:31;3.70;;;1.80;;
17259;SDS011;8746;49.230;9.220;2022-07-04T06:31:56;3.88;;;1.65;;
17259;SDS011;8746;49.230;9.220;2022-07-04T06:34:21;2.72;;;1.98;;
17259;SDS011;8746;49.230;9.220;2022-07-04T06:37:05;2.67;;;1.80;;
17259;SDS011;8746;49.230;9.220;2022-07-04T06:39:31;2.55;;;2.00;;
17259;SDS011;8746;49.230;9.220;2022-07-04T06:41:56;1.75;;;1.65;;
17259;SDS011;8746;49.230;9.220;2022-07-04T06:44:22;2.50;;;1.70;;
17259;SDS011;8746;49.230;9.220;2022-07-04T06:46:48;1.90;;;1.58;;
17259;SDS011;8746;49.230;9.220;2022-07-04T06:49:13;2.60;;;1.77;;
17259;SDS011;8746;49.230;9.220;2022-07-04T06:51:39;2.85;;;1.77;;
17259;SDS011;8746;49.230;9.220;2022-07-04T06:54:05;2.22;;;1.80;;
17259;SDS011;8746;49.230;9.220;2022-07-04T06:56:30;1.98;;;1.83;;
17259;SDS011;8746;49.230;9.220;2022-07-04T06:58:56;1.70;;;1.60;;
17259;SDS011;8746;49.230;9.220;2022-07-04T07:01:21;2.30;;;2.10;;
17259;SDS011;8746;49.230;9.220;2022-07-04T07:03:47;2.40;;;1.80;;
17259;SDS011;8746;49.230;9.220;2022-07-04T07:06:12;2.08;;;1.77;;
17259;SDS011;8746;49.230;9.220;2022-07-04T07:08:39;3.15;;;1.80;;
17259;SDS011;8746;49.230;9.220;2022-07-04T07:11:05;2.08;;;1.60;;
17259;SDS011;8746;49.230;9.220;2022-07-04T07:13:39;2.95;;;1.60;;
17259;SDS011;8746;49.230;9.220;2022-07-04T07:16:05;2.33;;;1.70;;
17259;SDS011;8746;49.230;9.220;2022-07-04T07:18:30;2.97;;;1.85;;
17259;SDS011;8746;49.230;9.220;2022-07-04T07:20:56;2.65;;;1.83;;
17259;SDS011;8746;49.230;9.220;2022-07-04T07:23:21;1.80;;;1.70;;
17259;SDS011;8746;49.230;9.220;2022-07-04T07:25:46;1.88;;;1.77;;
17259;SDS011;8746;49.230;9.220;2022-07-04T07:28:12;2.00;;;1.85;;
17259;SDS011;8746;49.230;9.220;2022-07-04T07:30:38;1.92;;;1.80;;
17259;SDS011;8746;49.230;9.220;2022-07-04T07:33:04;2.45;;;1.60;;
17259;SDS011;8746;49.230;9.220;2022-07-04T07:35:29;4.88;;;1.85;;
17259;SDS011;8746;49.230;9.220;2022-07-04T07:37:54;3.50;;;1.80;;
17259;SDS011;8746;49.230;9.220;2022-07-04T07:40:20;3.80;;;1.80;;
17259;SDS011;8746;49.230;9.220;2022-07-04T07:42:46;1.80;;;1.70;;
17259;SDS011;8746;49.230;9.220;2022-07-04T07:45:12;2.28;;;1.70;;
17259;SDS011;8746;49.230;9.220;2022-07-04T07:47:37;4.25;;;1.90;;
17259;SDS011;8746;49.230;9.220;2022-07-04T07:50:03;5.47;;;1.88;;
17259;SDS011;8746;49.230;9.220;2022-07-04T07:52:30;2.70;;;1.90;;
17259;SDS011;8746;49.230;9.220;2022-07-04T07:54:55;4.38;;;1.90;;
17259;SDS011;8746;49.230;9.220;2022-07-04T07:57:21;1.98;;;1.70;;
17259;SDS011;8746;49.230;9.220;2022-07-04T07:59:46;3.03;;;1.90;;
17259;SDS011;8746;49.230;9.220;2022-07-04T08:02:11;1.73;;;1.63;;
17259;SDS011;8746;49.230;9.220;2022-07-04T08:04:37;2.65;;;1.80;;
17259;SDS011;8746;49.230;9.220;2022-07-04T08:07:08;3.00;;;1.90;;
17259;SDS011;8746;49.230;9.220;2022-07-04T08:09:36;2.28;;;2.00;;
17259;SDS011;8746;49.230;9.220;2022-07-04T08:12:02;2.63;;;2.00;;
17259;SDS011;8746;49.230;9.220;2022-07-04T08:14:29;4.18;;;1.88;;
17259;SDS011;8746;49.230;9.220;2022-07-04T08:16:55;2.63;;;1.75;;
17259;SDS011;8746;49.230;9.220;2022-07-04T08:19:22;2.70;;;1.90;;
17259;SDS011;8746;49.230;9.220;2022-07-04T08:21:49;2.30;;;1.92;;
17259;SDS011;8746;49.230;9.220;2022-07-04T08:24:15;3.72;;;1.90;;
17259;SDS011;8746;49.230;9.220;2022-07-04T08:26:41;3.15;;;1.73;;
17259;SDS011;8746;49.230;9.220;2022-07-04T08:29:07;4.50;;;2.25;;
17259;SDS011;8746;49.230;9.220;2022-07-04T08:31:33;6.63;;;2.03;;
17259;SDS011;8746;49.230;9.220;2022-07-04T08:33:58;5.28;;;2.03;;
17259;SDS011;8746;49.230;9.220;2022-07-04T08:36:24;5.10;;;2.05;;
17259;SDS011;8746;49.230;9.220;2022-07-04T08:38:49;5.05;;;1.90;;
17259;SDS011;8746;49.230;9.220;2022-07-04T08:41:15;5.32;;;1.95;;
17259;SDS011;8746;49.230;9.220;2022-07-04T08:43:42;2.92;;;1.90;;
17259;SDS011;8746;49.230;9.220;2022-07-04T08:46:11;3.35;;;1.85;;
17259;SDS011;8746;49.230;9.220;2022-07-04T08:48:39;2.30;;;1.90;;
17259;SDS011;8746;49.230;9.220;2022-07-04T08:51:16;1.80;;;1.48;;
17259;SDS011;8746;49.230;9.220;2022-07-04T08:53:50;2.72;;;1.50;;
17259;SDS011;8746;49.230;9.220;2022-07-04T08:56:21;3.92;;;1.90;;
17259;SDS011;8746;49.230;9.220;2022-07-04T08:59:06;3.90;;;1.70;;
17259;SDS011;8746;49.230;9.220;2022-07-04T09:01:32;4.13;;;1.60;;
17259;SDS011;8746;49.230;9.220;2022-07-04T09:03:59;2.45;;;1.60;;
17259;SDS011;8746;49.230;9.220;2022-07-04T09:06:25;2.30;;;1.70;;
17259;SDS011;8746;49.230;9.220;2022-07-04T09:08:52;4.22;;;1.50;;
17259;SDS011;8746;49.230;9.220;2022-07-04T09:11:18;2.60;;;1.60;;
17259;SDS011;8746;49.230;9.220;2022-07-04T09:13:44;3.42;;;1.75;;
17259;SDS011;8746;49.230;9.220;2022-07-04T09:16:09;4.38;;;1.70;;
17259;SDS011;8746;49.230;9.220;2022-07-04T09:18:35;2.45;;;1.50;;
17259;SDS011;8746;49.230;9.220;2022-07-04T09:21:05;1.88;;;1.38;;
17259;SDS011;8746;49.230;9.220;2022-07-04T09:23:34;2.40;;;1.60;;
17259;SDS011;8746;49.230;9.220;2022-07-04T09:28:37;1.38;;;1.35;;
17259;SDS011;8746;49.230;9.220;2022-07-04T09:31:17;1.60;;;1.48;;
17259;SDS011;8746;49.230;9.220;2022-07-04T09:33:47;3.22;;;1.55;;
17259;SDS011;8746;49.230;9.220;2022-07-04T09:36:15;3.35;;;1.45;;
17259;SDS011;8746;49.230;9.220;2022-07-04T09:38:42;1.38;;;1.30;;
17259;SDS011;8746;49.230;9.220;2022-07-04T09:41:08;1.88;;;1.30;;
17259;SDS011;8746;49.230;9.220;2022-07-04T09:44:01;2.63;;;1.38;;
17259;SDS011;8746;49.230;9.220;2022-07-04T09:46:28;3.47;;;1.50;;
17259;SDS011;8746;49.230;9.220;2022-07-04T09:48:54;1.50;;;1.40;;
17259;SDS011;8746;49.230;9.220;2022-07-04T09:54:29;3.53;;;1.50;;
17259;SDS011;8746;49.230;9.220;2022-07-04T09:56:58;1.20;;;1.20;;
17259;SDS011;8746;49.230;9.220;2022-07-04T09:59:25;2.55;;;1.58;;
17259;SDS011;8746;49.230;9.220;2022-07-04T10:02:05;2.10;;;1.48;;
17259;SDS011;8746;49.230;9.220;2022-07-04T10:04:48;1.70;;;1.40;;
17259;SDS011;8746;49.230;9.220;2022-07-04T10:07:32;2.55;;;1.40;;
17259;SDS011;8746;49.230;9.220;2022-07-04T10:10:45;1.70;;;1.48;;
17259;SDS011;8746;49.230;9.220;2022-07-04T10:12:53;4.97;;;1.50;;
17259;SDS011;8746;49.230;9.220;2022-07-04T10:15:20;1.58;;;1.42;;
17259;SDS011;8746;49.230;9.220;2022-07-04T10:17:46;2.38;;;1.38;;
17259;SDS011;8746;49.230;9.220;2022-07-04T10:20:12;1.50;;;1.40;;
17259;SDS011;8746;49.230;9.220;2022-07-04T10:22:38;2.15;;;1.38;;
17259;SDS011;8746;49.230;9.220;2022-07-04T10:25:05;1.63;;;1.30;;
17259;SDS011;8746;49.230;9.220;2022-07-04T10:27:32;2.60;;;1.40;;
17259;SDS011;8746;49.230;9.220;2022-07-04T10:29:57;2.50;;;1.48;;
17259;SDS011;8746;49.230;9.220;2022-07-04T10:32:25;2.78;;;1.20;;
17259;SDS011;8746;49.230;9.220;2022-07-04T10:34:52;2.13;;;1.33;;
17259;SDS011;8746;49.230;9.220;2022-07-04T10:37:17;2.08;;;1.35;;
17259;SDS011;8746;49.230;9.220;2022-07-04T10:39:43;1.52;;;1.42;;
17259;SDS011;8746;49.230;9.220;2022-07-04T10:42:08;2.58;;;1.40;;
17259;SDS011;8746;49.230;9.220;2022-07-04T10:44:34;1.80;;;1.50;;
17259;SDS011;8746;49.230;9.220;2022-07-04T10:47:02;1.77;;;1.30;;
17259;SDS011;8746;49.230;9.220;2022-07-04T10:49:29;5.40;;;1.30;;
17259;SDS011;8746;49.230;9.220;2022-07-04T10:52:15;4.00;;;1.10;;
17259;SDS011;8746;49.230;9.220;2022-07-04T10:54:41;1.40;;;1.30;;
17259;SDS011;8746;49.230;9.220;2022-07-04T10:57:09;3.60;;;1.10;;
17259;SDS011;8746;49.230;9.220;2022-07-04T10:59:38;2.20;;;1.40;;
17259;SDS011;8746;49.230;9.220;2022-07-04T11:04:47;1.33;;;1.30;;
17259;SDS011;8746;49.230;9.220;2022-07-04T11:07:15;2.38;;;1.40;;
17259;SDS011;8746;49.230;9.220;2022-07-04T11:09:45;2.08;;;1.40;;
17259;SDS011;8746;49.230;9.220;2022-07-04T11:12:12;4.00;;;1.40;;
17259;SDS011;8746;49.230;9.220;2022-07-04T11:14:46;1.55;;;1.30;;
17259;SDS011;8746;49.230;9.220;2022-07-04T11:17:26;1.42;;;1.33;;
17259;SDS011;8746;49.230;9.220;2022-07-04T11:19:59;3.78;;;1.30;;
17259;SDS011;8746;49.230;9.220;2022-07-04T11:22:25;3.17;;;1.48;;
17259;SDS011;8746;49.230;9.220;2022-07-04T11:24:51;1.60;;;1.30;;
17259;SDS011;8746;49.230;9.220;2022-07-04T11:27:20;1.67;;;1.23;;
17259;SDS011;8746;49.230;9.220;2022-07-04T11:29:50;1.42;;;1.33;;
17259;SDS011;8746;49.230;9.220;2022-07-04T11:32:17;1.83;;;1.15;;
17259;SDS011;8746;49.230;9.220;2022-07-04T11:34:43;2.65;;;1.33;;
17259;SDS011;8746;49.230;9.220;2022-07-04T11:37:09;2.72;;;1.30;;
17259;SDS011;8746;49.230;9.220;2022-07-04T11:39:34;1.63;;;1.15;;
17259;SDS011;8746;49.230;9.220;2022-07-04T11:42:00;3.03;;;1.10;;
17259;SDS011;8746;49.230;9.220;2022-07-04T11:44:44;1.73;;;1.20;;
17259;SDS011;8746;49.230;9.220;2022-07-04T11:50:00;2.30;;;1.30;;
17259;SDS011;8746;49.230;9.220;2022-07-04T11:52:31;1.35;;;1.25;;
17259;SDS011;8746;49.230;9.220;2022-07-04T11:55:05;2.92;;;1.27;;
17259;SDS011;8746;49.230;9.220;2022-07-04T11:57:35;1.85;;;1.25;;
17259;SDS011;8746;49.230;9.220;2022-07-04T12:00:04;2.53;;;1.13;;
17259;SDS011;8746;49.230;9.220;2022-07-04T12:02:33;2.17;;;1.20;;
17259;SDS011;8746;49.230;9.220;2022-07-04T12:05:00;2.10;;;1.30;;
17259;SDS011;8746;49.230;9.220;2022-07-04T12:07:28;3.88;;;1.10;;
17259;SDS011;8746;49.230;9.220;2022-07-04T12:09:57;3.10;;;1.38;;
17259;SDS011;8746;49.230;9.220;2022-07-04T12:12:51;1.75;;;1.40;;
17259;SDS011;8746;49.230;9.220;2022-07-04T12:15:44;3.70;;;1.20;;
17259;SDS011;8746;49.230;9.220;2022-07-04T12:20:52;1.05;;;1.02;;
17259;SDS011;8746;49.230;9.220;2022-07-04T12:23:19;1.83;;;1.40;;
17259;SDS011;8746;49.230;9.220;2022-07-04T12:25:48;4.13;;;1.33;;
17259;SDS011;8746;49.230;9.220;2022-07-04T12:28:16;2.17;;;1.33;;
17259;SDS011;8746;49.230;9.220;2022-07-04T12:30:53;3.47;;;1.33;;
17259;SDS011;8746;49.230;9.220;2022-07-04T12:33:23;2.65;;;1.20;;
17259;SDS011;8746;49.230;9.220;2022-07-04T12:35:56;1.75;;;1.17;;
17259;SDS011;8746;49.230;9.220;2022-07-04T12:41:02;3.55;;;1.20;;
17259;SDS011;8746;49.230;9.220;2022-07-04T12:46:05;2.88;;;1.40;;
17259;SDS011;8746;49.230;9.220;2022-07-04T12:48:52;4.32;;;1.40;;
17259;SDS011;8746;49.230;9.220;2022-07-04T12:51:19;1.83;;;1.13;;
17259;SDS011;8746;49.230;9.220;2022-07-04T12:53:49;1.85;;;1.17;;
17259;SDS011;8746;49.230;9.220;2022-07-04T12:56:29;1.48;;;1.05;;
17259;SDS011;8746;49.230;9.220;2022-07-04T12:59:08;1.33;;;1.10;;
17259;SDS011;8746;49.230;9.220;2022-07-04T13:01:36;1.60;;;1.15;;
17259;SDS011;8746;49.230;9.220;2022-07-04T13:04:02;1.30;;;1.20;;
17259;SDS011;8746;49.230;9.220;2022-07-04T13:06:28;2.35;;;1.10;;
17259;SDS011;8746;49.230;9.220;2022-07-04T13:08:54;1.38;;;1.20;;
17259;SDS011;8746;49.230;9.220;2022-07-04T13:11:21;2.45;;;1.00;;
17259;SDS011;8746;49.230;9.220;2022-07-04T13:14:07;1.17;;;1.00;;
17259;SDS011;8746;49.230;9.220;2022-07-04T13:16:32;1.15;;;1.05;;
17259;SDS011;8746;49.230;9.220;2022-07-04T13:18:58;2.65;;;1.08;;
17259;SDS011;8746;49.230;9.220;2022-07-04T13:21:23;3.10;;;1.00;;
17259;SDS011;8746;49.230;9.220;2022-07-04T13:23:49;3.55;;;1.13;;
17259;SDS011;8746;49.230;9.220;2022-07-04T13:26:15;1.80;;;0.93;;
17259;SDS011;8746;49.230;9.220;2022-07-04T13:28:41;1.10;;;1.00;;
17259;SDS011;8746;49.230;9.220;2022-07-04T13:31:06;2.63;;;1.10;;
17259;SDS011;8746;49.230;9.220;2022-07-04T13:33:40;1.60;;;1.10;;
17259;SDS011;8746;49.230;9.220;2022-07-04T13:36:06;2.28;;;0.98;;
17259;SDS011;8746;49.230;9.220;2022-07-04T13:38:31;1.17;;;1.02;;
17259;SDS011;8746;49.230;9.220;2022-07-04T13:40:57;1.58;;;0.95;;
17259;SDS011;8746;49.230;9.220;2022-07-04T13:43:26;1.48;;;1.10;;
17259;SDS011;8746;49.230;9.220;2022-07-04T13:45:56;1.38;;;1.00;;
17259;SDS011;8746;49.230;9.220;2022-07-04T13:48:22;1.10;;;1.10;;
17259;SDS011;8746;49.230;9.220;2022-07-04T13:50:49;2.15;;;1.27;;
17259;SDS011;8746;49.230;9.220;2022-07-04T13:53:14;2.28;;;1.10;;
17259;SDS011;8746;49.230;9.220;2022-07-04T13:55:40;1.40;;;1.10;;
17259;SDS011;8746;49.230;9.220;2022-07-04T13:58:06;1.08;;;1.00;;
17259;SDS011;8746;49.230;9.220;2022-07-04T14:00:33;3.25;;;1.20;;
17259;SDS011;8746;49.230;9.220;2022-07-04T14:02:59;2.45;;;1.00;;
17259;SDS011;8746;49.230;9.220;2022-07-04T14:05:25;1.98;;;1.08;;
17259;SDS011;8746;49.230;9.220;2022-07-04T14:07:51;1.63;;;1.00;;
17259;SDS011;8746;49.230;9.220;2022-07-04T14:10:17;1.63;;;1.10;;
17259;SDS011;8746;49.230;9.220;2022-07-04T14:12:43;1.38;;;0.90;;
17259;SDS011;8746;49.230;9.220;2022-07-04T14:15:08;0.98;;;0.98;;
17259;SDS011;8746;49.230;9.220;2022-07-04T14:17:35;3.22;;;1.10;;
17259;SDS011;8746;49.230;9.220;2022-07-04T14:20:01;1.25;;;1.10;;
17259;SDS011;8746;49.230;9.220;2022-07-04T14:22:30;1.13;;;1.00;;
17259;SDS011;8746;49.230;9.220;2022-07-04T14:24:56;5.40;;;1.10;;
17259;SDS011;8746;49.230;9.220;2022-07-04T14:27:21;1.75;;;1.08;;
17259;SDS011;8746;49.230;9.220;2022-07-04T14:29:48;1.92;;;0.90;;
17259;SDS011;8746;49.230;9.220;2022-07-04T14:32:13;2.30;;;0.90;;
17259;SDS011;8746;49.230;9.220;2022-07-04T14:34:39;1.40;;;1.00;;
17259;SDS011;8746;49.230;9.220;2022-07-04T14:37:04;1.08;;;0.98;;
17259;SDS011;8746;49.230;9.220;2022-07-04T14:39:30;2.50;;;1.08;;
17259;SDS011;8746;49.230;9.220;2022-07-04T14:41:55;2.50;;;0.90;;
17259;SDS011;8746;49.230;9.220;2022-07-04T14:44:20;2.25;;;1.00;;
17259;SDS011;8746;49.230;9.220;2022-07-04T14:46:46;1.27;;;1.00;;
17259;SDS011;8746;49.230;9.220;2022-07-04T14:49:11;1.10;;;1.00;;
17259;SDS011;8746;49.230;9.220;2022-07-04T14:51:37;2.05;;;1.00;;
17259;SDS011;8746;49.230;9.220;2022-07-04T14:54:05;2.60;;;1.00;;
17259;SDS011;8746;49.230;9.220;2022-07-04T14:56:32;2.05;;;1.00;;
17259;SDS011;8746;49.230;9.220;2022-07-04T14:58:57;3.45;;;1.10;;
17259;SDS011;8746;49.230;9.220;2022-07-04T15:01:23;1.58;;;0.90;;
17259;SDS011;8746;49.230;9.220;2022-07-04T15:03:48;3.72;;;0.88;;
17259;SDS011;8746;49.230;9.220;2022-07-04T15:06:13;0.85;;;0.85;;
17259;SDS011;8746;49.230;9.220;2022-07-04T15:08:39;1.20;;;0.90;;
17259;SDS011;8746;49.230;9.220;2022-07-04T15:11:04;0.90;;;0.90;;
17259;SDS011;8746;49.230;9.220;2022-07-04T15:13:29;0.93;;;0.82;;
17259;SDS011;8746;49.230;9.220;2022-07-04T15:15:55;2.60;;;0.98;;
17259;SDS011;8746;49.230;9.220;2022-07-04T15:18:21;1.02;;;0.95;;